createdAt,value
2024-01-24T00:02:09.680Z,98040.88
2024-01-24T00:04:40.195Z,98042.06
2024-01-24T00:07:10.898Z,98036.56
2024-01-24T00:09:41.589Z,98026.00
2024-01-24T00:12:15.090Z,98024.78
2024-01-24T00:14:45.794Z,98026.53
2024-01-24T00:17:16.634Z,98005.75
2024-01-24T00:19:47.403Z,98016.63
2024-01-24T00:22:18.161Z,98004.00
2024-01-24T00:24:48.948Z,97999.72
2024-01-24T00:27:22.252Z,97998.06
2024-01-24T00:29:53.853Z,97988.16
2024-01-24T00:32:24.393Z,98000.91
2024-01-24T00:34:55.086Z,97979.47
2024-01-24T00:37:25.682Z,97986.50
2024-01-24T00:39:56.268Z,97954.94
2024-01-24T00:42:29.502Z,97960.44
2024-01-24T00:45:00.093Z,97954.63
2024-01-24T00:47:30.789Z,97965.41
2024-01-24T00:50:01.542Z,97944.91
2024-01-24T00:52:32.144Z,97961.75
2024-01-24T00:55:02.926Z,97961.31
2024-01-24T00:57:36.262Z,97949.91
2024-01-24T01:00:08.577Z,97930.66
2024-01-24T01:02:40.873Z,97933.84
2024-01-24T01:05:12.100Z,97913.38
2024-01-24T01:07:42.651Z,97915.69
2024-01-24T01:10:14.101Z,97914.91
2024-01-24T01:12:47.280Z,97896.34
2024-01-24T01:15:19.728Z,97897.13
2024-01-24T01:17:50.393Z,97928.91
2024-01-24T01:20:22.055Z,97879.84
2024-01-24T01:22:53.133Z,97880.94
2024-01-24T01:25:26.510Z,97866.41
2024-01-24T01:27:59.853Z,97889.19
2024-01-24T01:30:32.719Z,97881.47
2024-01-24T01:33:08.246Z,97877.41
2024-01-24T01:35:44.651Z,97866.19
2024-01-24T01:38:18.466Z,97865.88
2024-01-24T01:40:49.236Z,97856.75
2024-01-24T01:43:25.611Z,97842.44
2024-01-24T01:46:05.943Z,97837.13
2024-01-24T01:48:38.892Z,97837.91
2024-01-24T01:51:11.094Z,97836.28
2024-01-24T01:53:44.851Z,97832.19
2024-01-24T01:56:20.197Z,97816.00
2024-01-24T01:58:56.420Z,97818.75
2024-01-24T02:01:27.431Z,97815.88
2024-01-24T02:03:59.845Z,97798.16
2024-01-24T02:06:30.831Z,97813.00
2024-01-24T02:09:01.853Z,97791.09
2024-01-24T02:11:34.111Z,97778.41
2024-01-24T02:14:08.680Z,97782.28
2024-01-24T02:16:39.225Z,97768.72
2024-01-24T02:19:12.326Z,97771.31
2024-01-24T02:21:43.104Z,97767.56
2024-01-24T02:24:16.824Z,97750.50
2024-01-24T02:26:49.140Z,97779.09
2024-01-24T02:29:21.809Z,97743.63
2024-01-24T02:31:57.888Z,97728.97
2024-01-24T02:34:28.678Z,97738.75
2024-01-24T02:37:03.985Z,97720.00
2024-01-24T02:39:37.505Z,97709.47
2024-01-24T02:42:11.201Z,97689.75
2024-01-24T02:44:42.029Z,97722.78
2024-01-24T02:47:13.276Z,97695.44
2024-01-24T02:49:46.893Z,97723.47
2024-01-24T02:52:20.410Z,97713.06
2024-01-24T02:54:53.662Z,97694.09
2024-01-24T02:57:24.419Z,97685.25
2024-01-24T02:59:55.085Z,97689.22
2024-01-24T03:02:27.126Z,97704.84
2024-01-24T03:05:01.410Z,97678.56
2024-01-24T03:07:35.890Z,97663.75
2024-01-24T03:10:13.152Z,97663.75
2024-01-24T03:12:51.115Z,97659.63
2024-01-24T03:15:21.900Z,97647.09
2024-01-24T03:17:53.196Z,97649.88
2024-01-24T03:20:24.029Z,97693.84
2024-01-24T03:22:56.395Z,97675.34
2024-01-24T03:25:35.313Z,97670.59
2024-01-24T03:28:13.091Z,97679.66
2024-01-24T03:30:43.708Z,97652.38
2024-01-24T03:33:14.778Z,97656.81
2024-01-24T03:35:45.506Z,97650.69
2024-01-24T03:38:19.056Z,97657.75
2024-01-24T03:40:54.810Z,97652.41
2024-01-24T03:43:25.937Z,97648.09
2024-01-24T03:45:56.479Z,97661.28
2024-01-24T03:48:29.044Z,97631.09
2024-01-24T03:50:59.626Z,97651.78
2024-01-24T03:53:30.524Z,97645.53
2024-01-24T03:56:03.756Z,97645.38
2024-01-24T03:58:34.484Z,97640.47
2024-01-24T04:01:05.134Z,97630.94
2024-01-24T04:03:35.900Z,97639.53
2024-01-24T04:06:07.057Z,97640.16
2024-01-24T04:08:37.390Z,97638.63
2024-01-24T04:11:10.553Z,97602.59
2024-01-24T04:13:41.044Z,97634.31
2024-01-24T04:16:11.672Z,97639.72
2024-01-24T04:18:42.307Z,97626.19
2024-01-24T04:21:12.974Z,97615.03
2024-01-24T04:23:43.524Z,97594.47
2024-01-24T04:26:17.558Z,97588.34
2024-01-24T04:28:48.071Z,97577.56
2024-01-24T04:31:18.935Z,97555.81
2024-01-24T04:33:49.695Z,97551.97
2024-01-24T04:36:20.381Z,97537.34
2024-01-24T04:38:50.977Z,97522.63
2024-01-24T04:41:24.319Z,97526.63
2024-01-24T04:43:55.021Z,97528.63
2024-01-24T04:46:25.613Z,97507.59
2024-01-24T04:48:56.348Z,97541.63
2024-01-24T04:51:27.271Z,97539.78
2024-01-24T04:53:57.943Z,97525.59
2024-01-24T04:56:31.270Z,97509.66
2024-01-24T04:59:01.827Z,97506.53
2024-01-24T05:01:32.459Z,97511.88
2024-01-24T05:04:03.184Z,97524.00
2024-01-24T05:06:33.994Z,97535.22
2024-01-24T05:09:05.875Z,97518.19
2024-01-24T05:11:39.144Z,97508.47
2024-01-24T05:14:09.588Z,97525.16
2024-01-24T05:16:44.898Z,97512.13
2024-01-24T05:19:15.440Z,97542.81
2024-01-24T05:21:46.470Z,97547.25
2024-01-24T05:24:17.076Z,97553.03
2024-01-24T05:26:50.433Z,97552.88
2024-01-24T05:29:20.982Z,97553.00
2024-01-24T05:31:51.718Z,97564.47
2024-01-24T05:34:22.558Z,97545.22
2024-01-24T05:36:55.080Z,97566.88
2024-01-24T05:39:26.286Z,97560.69
2024-01-24T05:41:59.596Z,97568.88
2024-01-24T05:44:30.116Z,97578.19
2024-01-24T05:47:01.010Z,97552.19
2024-01-24T05:49:31.630Z,97550.78
2024-01-24T05:52:02.260Z,97554.59
2024-01-24T05:54:32.984Z,97540.44
2024-01-24T05:57:06.591Z,97551.28
2024-01-24T05:59:37.194Z,97539.31
2024-01-24T06:02:08.352Z,97545.59
2024-01-24T06:04:38.721Z,97542.44
2024-01-24T06:07:10.916Z,97536.44
2024-01-24T06:09:41.582Z,97536.63
2024-01-24T06:12:14.913Z,97552.28
2024-01-24T06:14:45.396Z,97549.50
2024-01-24T06:17:15.969Z,97547.34
2024-01-24T06:19:46.735Z,97551.16
2024-01-24T06:22:17.368Z,97550.09
2024-01-24T06:24:48.970Z,97547.91
2024-01-24T06:27:22.888Z,97538.06
2024-01-24T06:30:17.444Z,97542.09
2024-01-24T06:32:44.336Z,97540.06
2024-01-24T06:35:15.142Z,97539.31
2024-01-24T06:37:45.681Z,97533.31
2024-01-24T06:40:16.972Z,97521.78
2024-01-24T06:42:50.009Z,97546.94
2024-01-24T06:45:21.212Z,97526.66
2024-01-24T06:47:52.194Z,97512.16
2024-01-24T06:50:22.798Z,97519.88
2024-01-24T06:52:53.446Z,97516.81
2024-01-24T06:55:25.494Z,97508.50
2024-01-24T06:57:58.730Z,97508.50
2024-01-24T07:00:31.356Z,97512.81
2024-01-24T07:03:02.691Z,97520.81
2024-01-24T07:05:33.330Z,97525.00
2024-01-24T07:08:04.013Z,97518.31
2024-01-24T07:10:34.988Z,97536.16
2024-01-24T07:13:08.597Z,97527.69
2024-01-24T07:15:39.168Z,97523.94
2024-01-24T07:18:10.904Z,97514.41
2024-01-24T07:20:42.428Z,97506.78
2024-01-24T07:23:12.992Z,97513.53
2024-01-24T07:25:43.497Z,97520.63
2024-01-24T07:28:16.803Z,97512.88
2024-01-24T07:30:48.048Z,97494.88
2024-01-24T07:33:19.415Z,97492.69
2024-01-24T07:35:51.116Z,97483.31
2024-01-24T07:38:22.445Z,97484.09
2024-01-24T07:40:53.000Z,97479.22
2024-01-24T07:43:26.281Z,97487.13
2024-01-24T07:45:57.177Z,97485.13
2024-01-24T07:48:27.946Z,97476.44
2024-01-24T07:50:58.627Z,97481.31
2024-01-24T07:53:29.156Z,97499.47
2024-01-24T07:56:10.844Z,97487.13
2024-01-24T07:58:52.586Z,97494.78
2024-01-24T08:01:23.506Z,97505.03
2024-01-24T08:03:54.194Z,97481.19
2024-01-24T08:06:25.260Z,97483.91
2024-01-24T08:08:55.677Z,97501.09
2024-01-24T08:11:26.532Z,97513.50
2024-01-24T08:13:59.832Z,97492.78
2024-01-24T08:16:30.615Z,97521.44
2024-01-24T08:19:02.384Z,97520.19
2024-01-24T08:21:33.756Z,97516.97
2024-01-24T08:24:04.340Z,97495.28
2024-01-24T08:26:34.937Z,97522.69
2024-01-24T08:29:09.356Z,97514.09
2024-01-24T08:31:41.248Z,97507.97
2024-01-24T08:34:12.089Z,97512.78
2024-01-24T08:36:42.766Z,97525.50
2024-01-24T08:39:14.975Z,97518.25
2024-01-24T08:41:45.678Z,97523.00
2024-01-24T08:44:19.076Z,97548.41
2024-01-24T08:46:50.349Z,97560.19
2024-01-24T08:49:21.351Z,97558.91
2024-01-24T08:51:52.688Z,97568.19
2024-01-24T08:54:23.847Z,97567.72
2024-01-24T08:56:55.257Z,97548.59
2024-01-24T08:59:29.107Z,97550.91
2024-01-24T09:02:02.764Z,97552.69
2024-01-24T09:04:33.708Z,97550.97
2024-01-24T09:07:05.989Z,97558.59
2024-01-24T09:09:40.019Z,97557.06
2024-01-24T09:12:13.243Z,97558.91
2024-01-24T09:14:46.740Z,97560.34
2024-01-24T09:17:19.087Z,97572.19
2024-01-24T09:19:51.740Z,97559.31
2024-01-24T09:22:22.554Z,97576.56
2024-01-24T09:24:58.981Z,97575.94
2024-01-24T09:27:29.849Z,97558.91
2024-01-24T09:30:03.043Z,97585.16
2024-01-24T09:32:33.633Z,97576.19
2024-01-24T09:35:08.621Z,97569.88
2024-01-24T09:37:39.455Z,97584.94
2024-01-24T09:40:17.871Z,97587.94
2024-01-24T09:42:49.094Z,97590.50
2024-01-24T09:45:26.365Z,97602.63
2024-01-24T09:47:59.376Z,97586.69
2024-01-24T09:50:30.540Z,97594.06
2024-01-24T09:53:02.284Z,97593.22
2024-01-24T09:55:34.281Z,97614.34
2024-01-24T09:58:08.032Z,97593.53
2024-01-24T10:00:44.234Z,97590.22
2024-01-24T10:03:16.314Z,97595.63
2024-01-24T10:05:49.486Z,97592.84
2024-01-24T10:08:20.675Z,97592.19
2024-01-24T10:10:51.356Z,97580.31
2024-01-24T10:13:22.205Z,97579.09
2024-01-24T10:15:57.356Z,97582.72
2024-01-24T10:18:29.009Z,97569.97
2024-01-24T10:20:59.821Z,97587.53
2024-01-24T10:23:30.561Z,97589.41
2024-01-24T10:26:01.402Z,97590.50
2024-01-24T10:28:32.048Z,97585.63
2024-01-24T10:31:06.068Z,97576.75
2024-01-24T10:33:37.263Z,97574.94
2024-01-24T10:36:14.597Z,97568.63
2024-01-24T10:38:53.267Z,97588.69
2024-01-24T10:41:27.145Z,97594.00
2024-01-24T10:44:01.914Z,97595.53
2024-01-24T10:46:37.979Z,97592.00
2024-01-24T10:49:09.567Z,97596.22
2024-01-24T10:51:40.242Z,97610.31
2024-01-24T10:54:11.764Z,97614.69
2024-01-24T10:56:44.310Z,97614.47
2024-01-24T10:59:17.921Z,97609.91
2024-01-24T11:01:51.271Z,97627.09
2024-01-24T11:04:26.082Z,97621.63
2024-01-24T11:07:01.333Z,97622.47
2024-01-24T11:09:41.150Z,97614.63
2024-01-24T11:12:12.395Z,97592.59
2024-01-24T11:14:50.722Z,97606.38
2024-01-24T11:17:25.319Z,97620.28
2024-01-24T11:19:56.244Z,97642.38
2024-01-24T11:22:30.811Z,97618.78
2024-01-24T11:25:02.701Z,97638.38
2024-01-24T11:27:38.152Z,97637.81
2024-01-24T11:30:23.132Z,97659.69
2024-01-24T11:33:06.738Z,97649.38
2024-01-24T11:35:40.242Z,97629.00
2024-01-24T11:38:37.959Z,97634.53
2024-01-24T11:41:28.019Z,97631.69
2024-01-24T11:43:57.277Z,97617.31
2024-01-24T11:46:28.724Z,97602.06
2024-01-24T11:49:10.073Z,97606.00
2024-01-24T11:51:40.721Z,97627.28
2024-01-24T11:54:11.589Z,97639.59
2024-01-24T11:56:42.160Z,97677.09
2024-01-24T11:59:12.705Z,97664.69
2024-01-24T12:01:43.442Z,97671.63
2024-01-24T12:04:17.293Z,97649.19
2024-01-24T12:06:49.108Z,97625.97
2024-01-24T12:09:19.893Z,97623.41
2024-01-24T12:11:50.749Z,97656.28
2024-01-24T12:14:22.153Z,97646.28
2024-01-24T12:16:53.744Z,97645.97
2024-01-24T12:19:27.500Z,97683.81
2024-01-24T12:21:59.015Z,97694.97
2024-01-24T12:24:30.849Z,97669.56
2024-01-24T12:27:04.705Z,97664.94
2024-01-24T12:29:35.773Z,97686.72
2024-01-24T12:32:09.789Z,97710.53
2024-01-24T12:34:43.407Z,97651.25
2024-01-24T12:37:14.352Z,97706.66
2024-01-24T12:39:46.925Z,97707.25
2024-01-24T12:42:17.725Z,97674.28
2024-01-24T12:44:48.632Z,97706.44
2024-01-24T12:47:19.931Z,97714.09
2024-01-24T12:49:53.357Z,97723.03
2024-01-24T12:52:24.268Z,97738.69
2024-01-24T12:54:55.117Z,97723.50
2024-01-24T12:57:29.640Z,97749.09
2024-01-24T13:00:02.248Z,97735.63
2024-01-24T13:02:32.924Z,97755.44
2024-01-24T13:05:06.347Z,97731.34
2024-01-24T13:07:38.194Z,97749.44
2024-01-24T13:10:10.598Z,97762.44
2024-01-24T13:12:41.566Z,97774.69
2024-01-24T13:15:13.469Z,97790.53
2024-01-24T13:17:44.071Z,97796.00
2024-01-24T13:20:17.611Z,97797.13
2024-01-24T13:22:48.627Z,97786.22
2024-01-24T13:25:19.408Z,97788.81
2024-01-24T13:27:50.435Z,97786.81
2024-01-24T13:30:20.732Z,97806.97
2024-01-24T13:32:51.294Z,97789.50
2024-01-24T13:35:24.709Z,97796.75
2024-01-24T13:37:55.995Z,97795.63
2024-01-24T13:40:26.665Z,97804.06
2024-01-24T13:42:57.445Z,97819.03
2024-01-24T13:45:28.067Z,97820.94
2024-01-24T13:47:58.813Z,97820.66
2024-01-24T13:50:32.465Z,97814.50
2024-01-24T13:53:03.455Z,97818.22
2024-01-24T13:55:34.497Z,97828.06
2024-01-24T13:58:05.604Z,97826.72
2024-01-24T14:00:36.410Z,97817.16
2024-01-24T14:03:08.596Z,97820.91
2024-01-24T14:05:42.133Z,97844.59
2024-01-24T14:08:12.853Z,97849.50
2024-01-24T14:10:43.504Z,97834.84
2024-01-24T14:13:16.385Z,97822.59
2024-01-24T14:15:47.735Z,97835.63
2024-01-24T14:18:18.569Z,97835.31
2024-01-24T14:20:52.358Z,97837.25
2024-01-24T14:23:23.880Z,97845.94
2024-01-24T14:25:54.570Z,97847.91
2024-01-24T14:28:25.147Z,97864.34
2024-01-24T14:30:55.987Z,97850.97
2024-01-24T14:33:33.836Z,97849.44
2024-01-24T14:36:09.089Z,97869.25
2024-01-24T14:38:39.690Z,97851.72
2024-01-24T14:41:10.209Z,97856.69
2024-01-24T14:43:40.736Z,97844.38
2024-01-24T14:46:11.373Z,97861.00
2024-01-24T14:48:42.043Z,97852.13
2024-01-24T14:51:15.241Z,97871.63
2024-01-24T14:53:45.775Z,97865.66
2024-01-24T14:56:16.363Z,97885.63
2024-01-24T14:58:47.928Z,97863.59
2024-01-24T15:01:21.969Z,97877.63
2024-01-24T15:03:53.613Z,97883.34
2024-01-24T15:06:26.955Z,97879.38
2024-01-24T15:08:57.774Z,97884.63
2024-01-24T15:11:28.406Z,97897.22
2024-01-24T15:13:59.006Z,97909.25
2024-01-24T15:16:30.079Z,97926.16
2024-01-24T15:19:00.976Z,97918.38
2024-01-24T15:21:34.647Z,97928.09
2024-01-24T15:24:07.503Z,97935.94
2024-01-24T15:26:38.143Z,97921.97
2024-01-24T15:29:08.653Z,97919.78
2024-01-24T15:31:39.298Z,97911.81
2024-01-24T15:34:11.664Z,97928.72
2024-01-24T15:36:45.909Z,97936.25
2024-01-24T15:39:17.462Z,97929.00
2024-01-24T15:41:49.037Z,97941.47
2024-01-24T15:44:19.797Z,97936.69
2024-01-24T15:46:50.385Z,97943.16
2024-01-24T15:49:21.279Z,97956.09
2024-01-24T15:51:54.882Z,97965.94
2024-01-24T15:54:25.500Z,97949.66
2024-01-24T15:56:56.173Z,97958.09
2024-01-24T15:59:26.895Z,97957.97
2024-01-24T16:01:57.595Z,97965.66
2024-01-24T16:04:28.648Z,97972.09
2024-01-24T16:07:02.346Z,97983.69
2024-01-24T16:09:33.176Z,97983.84
2024-01-24T16:12:04.699Z,97967.28
2024-01-24T16:14:36.370Z,98001.41
2024-01-24T16:17:08.525Z,98005.69
2024-01-24T16:19:41.195Z,98009.06
2024-01-24T16:22:14.376Z,97996.47
2024-01-24T16:24:45.223Z,98014.28
2024-01-24T16:27:15.931Z,98017.22
2024-01-24T16:29:46.644Z,98019.38
2024-01-24T16:32:17.358Z,97984.81
2024-01-24T16:34:49.465Z,98038.72
2024-01-24T16:37:22.735Z,98016.31
2024-01-24T16:39:50.742Z,98044.09
2024-01-24T16:42:21.612Z,98040.13
2024-01-24T16:44:52.217Z,98047.47
2024-01-24T16:47:24.418Z,98026.13
2024-01-24T16:49:55.437Z,98033.97
2024-01-24T16:52:28.413Z,98035.81
2024-01-24T16:54:59.010Z,98041.97
2024-01-24T16:57:29.673Z,98048.28
2024-01-24T17:00:00.856Z,98040.72
2024-01-24T17:02:38.336Z,98037.81
2024-01-24T17:05:14.798Z,98039.34
2024-01-24T17:07:48.001Z,98033.22
2024-01-24T17:10:18.621Z,98038.28
2024-01-24T17:12:49.286Z,98043.81
2024-01-24T17:15:20.225Z,98052.09
2024-01-24T17:17:50.857Z,98048.72
2024-01-24T17:20:21.546Z,98049.94
2024-01-24T17:22:54.775Z,98048.09
2024-01-24T17:25:25.264Z,98044.88
2024-01-24T17:27:56.679Z,98057.03
2024-01-24T17:30:27.413Z,98058.72
2024-01-24T17:32:58.861Z,98058.53
2024-01-24T17:35:29.445Z,98065.16
2024-01-24T17:38:03.013Z,98067.91
2024-01-24T17:40:34.569Z,98074.25
2024-01-24T17:43:05.348Z,98069.00
2024-01-24T17:45:36.772Z,98070.09
2024-01-24T17:48:09.308Z,98078.69
2024-01-24T17:50:40.560Z,98087.28
2024-01-24T17:53:15.019Z,98085.44
2024-01-24T17:55:47.339Z,98092.50
2024-01-24T17:58:17.980Z,98099.72
2024-01-24T18:00:49.124Z,98095.88
2024-01-24T18:03:20.024Z,98096.97
2024-01-24T18:05:50.642Z,98101.28
2024-01-24T18:08:23.429Z,98099.75
2024-01-24T18:10:55.247Z,98117.56
2024-01-24T18:13:27.395Z,98113.69
2024-01-24T18:15:58.266Z,98114.31
2024-01-24T18:18:29.885Z,98125.38
2024-01-24T18:21:00.566Z,98137.53
2024-01-24T18:23:33.776Z,98121.84
2024-01-24T18:26:04.306Z,98134.44
2024-01-24T18:28:34.973Z,98123.06
2024-01-24T18:31:05.657Z,98140.44
2024-01-24T18:33:36.535Z,98135.66
2024-01-24T18:36:10.974Z,98155.94
2024-01-24T18:38:44.680Z,98154.41
2024-01-24T18:41:20.050Z,98147.50
2024-01-24T18:43:53.046Z,98168.84
2024-01-24T18:46:26.721Z,98151.97
2024-01-24T18:48:58.836Z,98166.25
2024-01-24T18:51:30.893Z,98163.03
2024-01-24T18:54:04.283Z,98165.47
2024-01-24T18:56:34.914Z,98170.06
2024-01-24T18:59:05.644Z,98162.38
2024-01-24T19:01:36.542Z,98164.38
2024-01-24T19:04:07.876Z,98135.66
2024-01-24T19:06:39.721Z,98182.84
2024-01-24T19:09:13.163Z,98168.84
2024-01-24T19:11:43.680Z,98175.00
2024-01-24T19:14:14.305Z,98171.91
2024-01-24T19:16:45.033Z,98168.56
2024-01-24T19:19:15.907Z,98184.81
2024-01-24T19:21:47.632Z,98185.16
2024-01-24T19:24:20.843Z,98185.78
2024-01-24T19:26:51.580Z,98193.91
2024-01-24T19:29:23.071Z,98182.31
2024-01-24T19:31:54.608Z,98172.47
2024-01-24T19:34:25.560Z,98188.19
2024-01-24T19:36:57.684Z,98174.38
2024-01-24T19:39:30.872Z,98181.69
2024-01-24T19:42:01.472Z,98179.13
2024-01-24T19:44:32.602Z,98175.50
2024-01-24T19:47:03.359Z,98152.94
2024-01-24T19:49:35.142Z,98169.97
2024-01-24T19:52:05.901Z,98181.81
2024-01-24T19:54:40.162Z,98182.91
2024-01-24T19:57:10.725Z,98176.44
2024-01-24T19:59:41.299Z,98173.50
2024-01-24T20:02:11.891Z,98173.81
2024-01-24T20:04:45.226Z,98178.75
2024-01-24T20:07:17.426Z,98193.78
2024-01-24T20:09:52.072Z,98176.13
2024-01-24T20:12:23.278Z,98188.41
2024-01-24T20:14:57.244Z,98181.97
2024-01-24T20:17:28.236Z,98184.56
2024-01-24T20:19:59.166Z,98191.34
2024-01-24T20:22:30.222Z,98196.22
2024-01-24T20:25:03.357Z,98196.72
2024-01-24T20:27:34.107Z,98198.88
2024-01-24T20:30:05.341Z,98205.47
2024-01-24T20:32:42.739Z,98198.28
2024-01-24T20:35:19.810Z,98198.72
2024-01-24T20:37:50.480Z,98188.28
2024-01-24T20:40:24.126Z,98213.09
2024-01-24T20:42:55.121Z,98201.09
2024-01-24T20:45:25.703Z,98204.50
2024-01-24T20:48:00.554Z,98209.38
2024-01-24T20:50:34.894Z,98207.72
2024-01-24T20:53:08.003Z,98213.25
2024-01-24T20:55:41.268Z,98217.41
2024-01-24T20:58:11.993Z,98193.75
2024-01-24T21:00:42.834Z,98211.56
2024-01-24T21:03:17.388Z,98218.78
2024-01-24T21:05:49.017Z,98219.97
2024-01-24T21:08:20.360Z,98226.09
2024-01-24T21:10:59.887Z,98224.56
2024-01-24T21:13:33.935Z,98224.56
2024-01-24T21:16:04.970Z,98233.19
2024-01-24T21:18:35.614Z,98232.25
2024-01-24T21:21:06.629Z,98223.19
2024-01-24T21:23:42.931Z,98255.47
2024-01-24T21:26:16.162Z,98244.06
2024-01-24T21:28:46.694Z,98253.41
2024-01-24T21:31:17.348Z,98240.34
2024-01-24T21:33:48.120Z,98252.47
2024-01-24T21:36:24.655Z,98254.59
2024-01-24T21:38:58.128Z,98256.59
2024-01-24T21:41:31.569Z,98261.25
2024-01-24T21:44:04.867Z,98257.78
2024-01-24T21:46:35.375Z,98266.75
2024-01-24T21:49:10.676Z,98264.56
2024-01-24T21:51:41.604Z,98276.09
2024-01-24T21:54:25.960Z,98254.56
2024-01-24T21:57:10.895Z,98259.19
2024-01-24T21:59:41.486Z,98244.94
2024-01-24T22:02:12.047Z,98259.53
2024-01-24T22:04:42.787Z,98254.00
2024-01-24T22:07:13.521Z,98241.22
2024-01-24T22:09:46.263Z,98247.78
2024-01-24T22:12:27.660Z,98253.47
2024-01-24T22:15:03.173Z,98258.38
2024-01-24T22:17:36.450Z,98256.06
2024-01-24T22:20:07.880Z,98264.03
2024-01-24T22:25:18.938Z,98270.66
2024-01-24T22:27:52.243Z,98263.91
2024-01-24T22:30:22.772Z,98279.84
2024-01-24T22:32:53.494Z,98285.00
2024-01-24T22:35:29.502Z,98285.06
2024-01-24T22:38:05.847Z,98285.25
2024-01-24T22:40:46.835Z,98280.94
2024-01-24T22:43:21.552Z,98273.72
2024-01-24T22:45:54.710Z,98299.69
2024-01-24T22:51:13.401Z,98288.38
2024-01-24T22:53:44.611Z,98295.66
2024-01-24T22:56:15.189Z,98294.75
2024-01-24T22:58:48.369Z,98294.13
2024-01-24T23:01:19.327Z,98287.81
2024-01-24T23:03:50.138Z,98293.41
2024-01-24T23:06:21.207Z,98283.13
2024-01-24T23:08:51.968Z,98294.50
2024-01-24T23:11:22.708Z,98297.34
2024-01-24T23:13:55.889Z,98311.84
2024-01-24T23:16:26.383Z,98300.03
2024-01-24T23:19:00.351Z,98294.50
2024-01-24T23:21:30.883Z,98321.44
2024-01-24T23:24:02.118Z,98300.88
2024-01-24T23:26:32.601Z,98306.06
2024-01-24T23:29:05.808Z,98309.84
2024-01-24T23:31:36.512Z,98309.56
2024-01-24T23:34:07.361Z,98306.06
2024-01-24T23:36:38.128Z,98311.44
2024-01-24T23:39:08.736Z,98310.72
2024-01-24T23:41:42.068Z,98305.63
2024-01-24T23:44:15.526Z,98320.31
2024-01-24T23:46:46.031Z,98307.69
2024-01-24T23:49:17.762Z,98314.63
2024-01-24T23:51:48.573Z,98312.75
2024-01-24T23:54:19.449Z,98300.69
2024-01-24T23:56:49.933Z,98308.44
2024-01-24T23:59:23.592Z,98298.50
